• Join FlightAware (Why Join?)
  • Login
  • US Flag 
07:32PM EDT


 

Airport Tracker/Info


-or-


 

Live Flight TrackerFlight Track Log ✈ SKW5305 ✈ 02-May-2013 ✈ KSEA - KPDX

Flight Track Log - Related Links

Times and Time Zones

All times are in EDT time to prevent confusion due to time zone crossing. See the SKW5305 flight status page for this flight to view local times or setup timezone preferences in your user account.

Time Position Orientation Groundspeed Altitude Reporting Facility
EDT Latitude Longitude Course Direction KTS MPH feet Rate Location/Type
08:34PM 47.4556 -122.3122 180° South 135 155 1,000  Level Seattle Center
08:36PM 47.5047 -122.3214 353° North 161 185 4,000 2,760 Climbing Seattle Center
08:37PM 47.5506 -122.3353 348° North 174 200 6,900 2,640 Climbing Seattle Center
08:37PM 47.5958 -122.3564 343° North 199 229 9,200 2,220 Climbing Seattle Center
08:38PM 47.5967 -122.4131 271° West 190 219 10,700 1,500 Climbing Seattle Center
08:39PM 47.5497 -122.4622 215° Southwest 234 269 11,900 1,200 Climbing Seattle Center
08:40PM 46.9791 -122.3858 180° South  Level Estimated
08:40PM 47.4853 -122.4172 155° Southeast 258 297 13,200  Level Seattle Center
08:41PM 47.4194 -122.3692 154° Southeast 269 310 14,500 840 Climbing Seattle Center
08:42PM 47.3461 -122.3122 152° Southeast 279 321 15,000 240 Climbing Seattle Center
08:43PM 47.2706 -122.3047 176° South 271 312 15,000  Level Seattle Center
08:44PM 47.1942 -122.3056 180° South 275 316 15,000  Level Seattle Center
08:45PM 47.1183 -122.3081 181° South 274 315 15,000  Level Seattle Center
08:46PM 47.0431 -122.3083 180° South 271 312 15,000  Level Seattle Center
08:47PM 46.9628 -122.3092 180° South 269 310 15,000  Level Seattle Center
08:48PM 46.8881 -122.3136 182° South 268 308 15,000 -60 Level Seattle Center
08:49PM 46.8136 -122.3211 184° South 268 308 14,900 -540 Descending Seattle Center
08:50PM 46.7350 -122.3317 185° South 282 325 14,000 -780 Descending Seattle Center
08:51PM 46.6564 -122.3453 187° South 285 328 13,400 -660 Descending Seattle Center
08:52PM 46.5794 -122.3581 187° South 281 323 12,700 -720 Descending Seattle Center
08:53PM 46.5022 -122.3692 186° South 282 325 12,000 -840 Descending Seattle Center
08:54PM 46.4342 -122.3775 185° South 281 323 11,200 -960 Descending Seattle Center
08:55PM 46.4006 -122.3822 186° South 283 326 10,900 -660 Descending Seattle Center
08:56PM 46.3469 -122.3817 180° South 284 327 10,400 -540 Descending Seattle Center
08:57PM 46.2697 -122.3867 183° South 282 325 10,000 -240 Descending Seattle Center
08:58PM 46.1861 -122.3914 182° South 259 298 10,000 -480 Level Seattle Center
08:59PM 46.1114 -122.4008 185° South 266 306 9,100 -1,020 Descending Seattle Center
09:00PM 46.0308 -122.4211 190° South 294 338 8,000 -1,140 Descending Seattle Center
09:01PM 45.9639 -122.4778 210° Southwest 285 328 6,900 -840 Descending Seattle Center
09:02PM 45.8944 -122.5164 201° Southwest 274 315 6,300 -480 Descending Seattle Center
09:03PM 45.8231 -122.5217 183° South 264 304 6,000 -480 Descending Seattle Center
09:04PM 45.7600 -122.4767 154° Southeast 258 297 5,400 -960 Descending Seattle Center
09:05PM 45.6931 -122.4347 156° South 260 299 4,100 -720 Descending Seattle Center
09:06PM 45.6292 -122.3850 151° Southeast 263 303 4,000 -360 Descending Seattle Center
09:07PM 45.5758 -122.3575 160° South 249 287 3,400 -600 Descending Seattle Center
09:08PM 45.5308 -122.3986 213° Southwest 204 235 2,800 -600 Descending Seattle Center